sensor_id;sensor_type;location;lat;lon;timestamp;P1;durP1;ratioP1;P2;durP2;ratioP2
81160;SDS011;70637;48.514;14.500;2024-03-08T00:01:09;4.00;;;2.05;;
81160;SDS011;70637;48.514;14.500;2024-03-08T00:03:35;4.57;;;2.08;;
81160;SDS011;70637;48.514;14.500;2024-03-08T00:06:01;5.22;;;2.38;;
81160;SDS011;70637;48.514;14.500;2024-03-08T00:08:27;4.35;;;2.28;;
81160;SDS011;70637;48.514;14.500;2024-03-08T00:10:53;4.38;;;2.40;;
81160;SDS011;70637;48.514;14.500;2024-03-08T00:13:19;4.13;;;2.15;;
81160;SDS011;70637;48.514;14.500;2024-03-08T00:15:44;6.55;;;2.20;;
81160;SDS011;70637;48.514;14.500;2024-03-08T00:18:10;5.72;;;2.50;;
81160;SDS011;70637;48.514;14.500;2024-03-08T00:20:36;5.03;;;2.10;;
81160;SDS011;70637;48.514;14.500;2024-03-08T00:23:02;3.55;;;1.92;;
81160;SDS011;70637;48.514;14.500;2024-03-08T00:25:28;4.43;;;2.38;;
81160;SDS011;70637;48.514;14.500;2024-03-08T00:27:53;4.10;;;2.13;;
81160;SDS011;70637;48.514;14.500;2024-03-08T00:30:22;4.47;;;2.42;;
81160;SDS011;70637;48.514;14.500;2024-03-08T00:32:50;4.30;;;2.38;;
81160;SDS011;70637;48.514;14.500;2024-03-08T00:35:15;3.90;;;2.17;;
81160;SDS011;70637;48.514;14.500;2024-03-08T00:37:41;3.50;;;2.22;;
81160;SDS011;70637;48.514;14.500;2024-03-08T00:40:07;5.75;;;2.47;;
81160;SDS011;70637;48.514;14.500;2024-03-08T00:42:34;3.30;;;2.08;;
81160;SDS011;70637;48.514;14.500;2024-03-08T00:45:00;3.63;;;2.03;;
81160;SDS011;70637;48.514;14.500;2024-03-08T00:47:26;6.00;;;2.25;;
81160;SDS011;70637;48.514;14.500;2024-03-08T00:49:52;4.93;;;2.00;;
81160;SDS011;70637;48.514;14.500;2024-03-08T00:52:18;5.75;;;2.53;;
81160;SDS011;70637;48.514;14.500;2024-03-08T00:54:44;4.38;;;2.13;;
81160;SDS011;70637;48.514;14.500;2024-03-08T00:57:10;5.03;;;2.38;;
81160;SDS011;70637;48.514;14.500;2024-03-08T00:59:37;5.07;;;2.20;;
81160;SDS011;70637;48.514;14.500;2024-03-08T01:02:03;4.85;;;2.50;;
81160;SDS011;70637;48.514;14.500;2024-03-08T01:04:29;4.53;;;2.50;;
81160;SDS011;70637;48.514;14.500;2024-03-08T01:06:55;5.00;;;2.10;;
81160;SDS011;70637;48.514;14.500;2024-03-08T01:09:24;5.13;;;2.40;;
81160;SDS011;70637;48.514;14.500;2024-03-08T01:11:51;4.00;;;2.38;;
81160;SDS011;70637;48.514;14.500;2024-03-08T01:14:19;6.30;;;2.50;;
81160;SDS011;70637;48.514;14.500;2024-03-08T01:16:47;3.45;;;2.05;;
81160;SDS011;70637;48.514;14.500;2024-03-08T01:19:13;5.00;;;2.40;;
81160;SDS011;70637;48.514;14.500;2024-03-08T01:21:39;5.07;;;2.40;;
81160;SDS011;70637;48.514;14.500;2024-03-08T01:24:04;4.88;;;2.05;;
81160;SDS011;70637;48.514;14.500;2024-03-08T01:26:30;3.88;;;2.20;;
81160;SDS011;70637;48.514;14.500;2024-03-08T01:28:56;6.13;;;2.60;;
81160;SDS011;70637;48.514;14.500;2024-03-08T01:31:22;4.68;;;2.40;;
81160;SDS011;70637;48.514;14.500;2024-03-08T01:33:48;5.47;;;2.58;;
81160;SDS011;70637;48.514;14.500;2024-03-08T01:36:15;6.25;;;2.35;;
81160;SDS011;70637;48.514;14.500;2024-03-08T01:38:42;6.47;;;2.15;;
81160;SDS011;70637;48.514;14.500;2024-03-08T01:41:07;4.32;;;2.28;;
81160;SDS011;70637;48.514;14.500;2024-03-08T01:43:34;4.35;;;2.28;;
81160;SDS011;70637;48.514;14.500;2024-03-08T01:45:59;4.78;;;2.42;;
81160;SDS011;70637;48.514;14.500;2024-03-08T01:48:27;3.88;;;2.20;;
81160;SDS011;70637;48.514;14.500;2024-03-08T01:50:54;5.22;;;2.22;;
81160;SDS011;70637;48.514;14.500;2024-03-08T01:53:21;3.50;;;2.08;;
81160;SDS011;70637;48.514;14.500;2024-03-08T01:55:48;4.95;;;2.88;;
81160;SDS011;70637;48.514;14.500;2024-03-08T01:58:16;4.35;;;2.30;;
81160;SDS011;70637;48.514;14.500;2024-03-08T02:00:46;4.63;;;2.40;;
81160;SDS011;70637;48.514;14.500;2024-03-08T02:03:16;6.13;;;2.60;;
81160;SDS011;70637;48.514;14.500;2024-03-08T02:05:42;6.18;;;2.40;;
81160;SDS011;70637;48.514;14.500;2024-03-08T02:08:08;5.65;;;2.38;;
81160;SDS011;70637;48.514;14.500;2024-03-08T02:10:39;6.32;;;2.40;;
81160;SDS011;70637;48.514;14.500;2024-03-08T02:13:09;3.63;;;2.08;;
81160;SDS011;70637;48.514;14.500;2024-03-08T02:18:20;6.25;;;2.55;;
81160;SDS011;70637;48.514;14.500;2024-03-08T02:20:47;3.75;;;2.42;;
81160;SDS011;70637;48.514;14.500;2024-03-08T02:23:14;4.10;;;2.40;;
81160;SDS011;70637;48.514;14.500;2024-03-08T02:25:40;3.70;;;2.40;;
81160;SDS011;70637;48.514;14.500;2024-03-08T02:28:08;4.15;;;2.38;;
81160;SDS011;70637;48.514;14.500;2024-03-08T02:30:38;3.97;;;2.53;;
81160;SDS011;70637;48.514;14.500;2024-03-08T02:33:04;6.18;;;2.75;;
81160;SDS011;70637;48.514;14.500;2024-03-08T02:35:30;6.47;;;2.92;;
81160;SDS011;70637;48.514;14.500;2024-03-08T02:37:56;4.70;;;2.70;;
81160;SDS011;70637;48.514;14.500;2024-03-08T02:40:23;5.40;;;2.42;;
81160;SDS011;70637;48.514;14.500;2024-03-08T02:42:49;5.20;;;2.47;;
81160;SDS011;70637;48.514;14.500;2024-03-08T02:45:14;5.25;;;2.65;;
81160;SDS011;70637;48.514;14.500;2024-03-08T02:47:40;5.68;;;2.65;;
81160;SDS011;70637;48.514;14.500;2024-03-08T02:50:06;6.80;;;2.85;;
81160;SDS011;70637;48.514;14.500;2024-03-08T02:52:35;4.05;;;2.45;;
81160;SDS011;70637;48.514;14.500;2024-03-08T02:55:01;5.72;;;2.70;;
81160;SDS011;70637;48.514;14.500;2024-03-08T02:57:27;3.63;;;2.40;;
81160;SDS011;70637;48.514;14.500;2024-03-08T02:59:55;4.15;;;2.53;;
81160;SDS011;70637;48.514;14.500;2024-03-08T03:02:21;6.40;;;2.38;;
81160;SDS011;70637;48.514;14.500;2024-03-08T03:04:48;6.43;;;2.65;;
81160;SDS011;70637;48.514;14.500;2024-03-08T03:07:14;6.47;;;2.90;;
81160;SDS011;70637;48.514;14.500;2024-03-08T03:09:39;5.45;;;2.88;;
81160;SDS011;70637;48.514;14.500;2024-03-08T03:12:05;4.32;;;2.45;;
81160;SDS011;70637;48.514;14.500;2024-03-08T03:14:34;7.57;;;2.78;;
81160;SDS011;70637;48.514;14.500;2024-03-08T03:17:03;4.07;;;2.40;;
81160;SDS011;70637;48.514;14.500;2024-03-08T03:19:29;4.40;;;2.65;;
81160;SDS011;70637;48.514;14.500;2024-03-08T03:21:55;5.95;;;2.22;;
81160;SDS011;70637;48.514;14.500;2024-03-08T03:24:21;4.30;;;2.85;;
81160;SDS011;70637;48.514;14.500;2024-03-08T03:26:48;7.22;;;2.80;;
81160;SDS011;70637;48.514;14.500;2024-03-08T03:29:14;3.70;;;2.30;;
81160;SDS011;70637;48.514;14.500;2024-03-08T03:31:42;5.72;;;2.47;;
81160;SDS011;70637;48.514;14.500;2024-03-08T03:34:11;5.72;;;2.22;;
81160;SDS011;70637;48.514;14.500;2024-03-08T03:36:37;4.07;;;2.30;;
81160;SDS011;70637;48.514;14.500;2024-03-08T03:39:07;4.22;;;2.58;;
81160;SDS011;70637;48.514;14.500;2024-03-08T03:41:38;3.37;;;2.20;;
81160;SDS011;70637;48.514;14.500;2024-03-08T03:44:07;4.90;;;2.78;;
81160;SDS011;70637;48.514;14.500;2024-03-08T03:46:33;5.53;;;2.60;;
81160;SDS011;70637;48.514;14.500;2024-03-08T03:48:59;4.88;;;2.33;;
81160;SDS011;70637;48.514;14.500;2024-03-08T03:51:24;4.95;;;2.50;;
81160;SDS011;70637;48.514;14.500;2024-03-08T03:53:54;3.40;;;2.20;;
81160;SDS011;70637;48.514;14.500;2024-03-08T03:56:24;3.95;;;2.38;;
81160;SDS011;70637;48.514;14.500;2024-03-08T03:58:51;4.95;;;2.53;;
81160;SDS011;70637;48.514;14.500;2024-03-08T04:01:17;3.95;;;2.67;;
81160;SDS011;70637;48.514;14.500;2024-03-08T04:03:42;4.55;;;2.67;;
81160;SDS011;70637;48.514;14.500;2024-03-08T04:06:08;4.18;;;2.38;;
81160;SDS011;70637;48.514;14.500;2024-03-08T04:08:34;6.22;;;2.55;;
81160;SDS011;70637;48.514;14.500;2024-03-08T04:11:00;3.28;;;2.05;;
81160;SDS011;70637;48.514;14.500;2024-03-08T04:13:26;3.60;;;2.50;;
81160;SDS011;70637;48.514;14.500;2024-03-08T04:15:52;4.10;;;2.50;;
81160;SDS011;70637;48.514;14.500;2024-03-08T04:18:18;3.92;;;2.70;;
81160;SDS011;70637;48.514;14.500;2024-03-08T04:20:44;4.05;;;2.58;;
81160;SDS011;70637;48.514;14.500;2024-03-08T04:23:10;5.35;;;2.53;;
81160;SDS011;70637;48.514;14.500;2024-03-08T04:25:36;4.05;;;2.47;;
81160;SDS011;70637;48.514;14.500;2024-03-08T04:28:01;3.97;;;2.40;;
81160;SDS011;70637;48.514;14.500;2024-03-08T04:30:27;4.13;;;2.65;;
81160;SDS011;70637;48.514;14.500;2024-03-08T04:32:53;5.78;;;2.53;;
81160;SDS011;70637;48.514;14.500;2024-03-08T04:35:19;4.53;;;2.58;;
81160;SDS011;70637;48.514;14.500;2024-03-08T04:37:45;4.20;;;2.38;;
81160;SDS011;70637;48.514;14.500;2024-03-08T04:40:11;4.82;;;2.60;;
81160;SDS011;70637;48.514;14.500;2024-03-08T04:42:38;4.75;;;2.53;;
81160;SDS011;70637;48.514;14.500;2024-03-08T04:45:05;4.85;;;2.63;;
81160;SDS011;70637;48.514;14.500;2024-03-08T04:47:33;4.00;;;2.47;;
81160;SDS011;70637;48.514;14.500;2024-03-08T04:49:58;4.35;;;2.42;;
81160;SDS011;70637;48.514;14.500;2024-03-08T04:52:24;5.05;;;2.83;;
81160;SDS011;70637;48.514;14.500;2024-03-08T04:54:51;3.40;;;2.40;;
81160;SDS011;70637;48.514;14.500;2024-03-08T04:57:16;3.72;;;2.53;;
81160;SDS011;70637;48.514;14.500;2024-03-08T04:59:45;3.88;;;2.30;;
81160;SDS011;70637;48.514;14.500;2024-03-08T05:02:10;4.03;;;2.47;;
81160;SDS011;70637;48.514;14.500;2024-03-08T05:04:36;4.85;;;2.40;;
81160;SDS011;70637;48.514;14.500;2024-03-08T05:07:02;6.50;;;2.88;;
81160;SDS011;70637;48.514;14.500;2024-03-08T05:09:29;10.27;;;3.70;;
81160;SDS011;70637;48.514;14.500;2024-03-08T05:11:56;12.85;;;4.75;;
81160;SDS011;70637;48.514;14.500;2024-03-08T05:14:24;15.50;;;5.03;;
81160;SDS011;70637;48.514;14.500;2024-03-08T05:16:50;17.92;;;5.18;;
81160;SDS011;70637;48.514;14.500;2024-03-08T05:19:16;13.80;;;5.15;;
81160;SDS011;70637;48.514;14.500;2024-03-08T05:21:43;12.50;;;5.03;;
81160;SDS011;70637;48.514;14.500;2024-03-08T05:24:09;12.40;;;4.88;;
81160;SDS011;70637;48.514;14.500;2024-03-08T05:26:36;15.27;;;6.00;;
81160;SDS011;70637;48.514;14.500;2024-03-08T05:29:02;16.42;;;5.68;;
81160;SDS011;70637;48.514;14.500;2024-03-08T05:31:28;17.38;;;6.03;;
81160;SDS011;70637;48.514;14.500;2024-03-08T05:33:56;16.67;;;5.78;;
81160;SDS011;70637;48.514;14.500;2024-03-08T05:36:21;14.13;;;5.85;;
81160;SDS011;70637;48.514;14.500;2024-03-08T05:38:47;16.98;;;6.70;;
81160;SDS011;70637;48.514;14.500;2024-03-08T05:41:15;21.48;;;7.25;;
81160;SDS011;70637;48.514;14.500;2024-03-08T05:43:42;16.42;;;6.88;;
81160;SDS011;70637;48.514;14.500;2024-03-08T05:46:08;16.90;;;6.78;;
81160;SDS011;70637;48.514;14.500;2024-03-08T05:48:35;15.80;;;6.68;;
81160;SDS011;70637;48.514;14.500;2024-03-08T05:51:02;16.27;;;7.18;;
81160;SDS011;70637;48.514;14.500;2024-03-08T05:53:28;15.63;;;6.68;;
81160;SDS011;70637;48.514;14.500;2024-03-08T05:55:57;19.50;;;7.35;;
81160;SDS011;70637;48.514;14.500;2024-03-08T05:58:23;18.40;;;7.68;;
81160;SDS011;70637;48.514;14.500;2024-03-08T06:00:49;18.48;;;7.25;;
81160;SDS011;70637;48.514;14.500;2024-03-08T06:03:15;18.40;;;8.00;;
81160;SDS011;70637;48.514;14.500;2024-03-08T06:05:40;19.08;;;7.93;;
81160;SDS011;70637;48.514;14.500;2024-03-08T06:08:07;16.23;;;6.80;;
81160;SDS011;70637;48.514;14.500;2024-03-08T06:10:33;17.25;;;6.75;;
81160;SDS011;70637;48.514;14.500;2024-03-08T06:12:59;19.45;;;7.95;;
81160;SDS011;70637;48.514;14.500;2024-03-08T06:15:25;18.08;;;7.47;;
81160;SDS011;70637;48.514;14.500;2024-03-08T06:17:51;16.52;;;7.30;;
81160;SDS011;70637;48.514;14.500;2024-03-08T06:20:19;14.63;;;7.15;;
81160;SDS011;70637;48.514;14.500;2024-03-08T06:22:45;16.42;;;6.85;;
81160;SDS011;70637;48.514;14.500;2024-03-08T06:25:11;21.80;;;7.63;;
81160;SDS011;70637;48.514;14.500;2024-03-08T06:27:42;16.95;;;7.30;;
81160;SDS011;70637;48.514;14.500;2024-03-08T06:30:08;18.88;;;6.90;;
81160;SDS011;70637;48.514;14.500;2024-03-08T06:32:35;18.20;;;7.57;;
81160;SDS011;70637;48.514;14.500;2024-03-08T06:35:01;16.27;;;6.53;;
81160;SDS011;70637;48.514;14.500;2024-03-08T06:37:31;14.00;;;6.68;;
81160;SDS011;70637;48.514;14.500;2024-03-08T06:40:00;18.60;;;6.63;;
81160;SDS011;70637;48.514;14.500;2024-03-08T06:42:29;16.33;;;7.43;;
81160;SDS011;70637;48.514;14.500;2024-03-08T06:45:00;20.17;;;7.40;;
81160;SDS011;70637;48.514;14.500;2024-03-08T06:47:30;17.77;;;7.53;;
81160;SDS011;70637;48.514;14.500;2024-03-08T06:49:56;14.43;;;6.75;;
81160;SDS011;70637;48.514;14.500;2024-03-08T06:52:22;16.35;;;7.10;;
81160;SDS011;70637;48.514;14.500;2024-03-08T06:54:48;15.43;;;6.97;;
81160;SDS011;70637;48.514;14.500;2024-03-08T06:57:14;16.25;;;7.15;;
81160;SDS011;70637;48.514;14.500;2024-03-08T06:59:41;16.17;;;7.15;;
81160;SDS011;70637;48.514;14.500;2024-03-08T07:02:07;18.02;;;7.13;;
81160;SDS011;70637;48.514;14.500;2024-03-08T07:04:34;20.10;;;7.30;;
81160;SDS011;70637;48.514;14.500;2024-03-08T07:07:03;17.35;;;7.60;;
81160;SDS011;70637;48.514;14.500;2024-03-08T07:09:29;16.23;;;7.13;;
81160;SDS011;70637;48.514;14.500;2024-03-08T07:11:55;15.93;;;7.13;;
81160;SDS011;70637;48.514;14.500;2024-03-08T07:14:21;15.50;;;6.72;;
81160;SDS011;70637;48.514;14.500;2024-03-08T07:16:47;16.15;;;6.60;;
81160;SDS011;70637;48.514;14.500;2024-03-08T07:19:13;15.32;;;7.30;;
81160;SDS011;70637;48.514;14.500;2024-03-08T07:21:40;18.40;;;7.20;;
81160;SDS011;70637;48.514;14.500;2024-03-08T07:24:07;16.50;;;6.78;;
81160;SDS011;70637;48.514;14.500;2024-03-08T07:26:53;19.05;;;7.00;;
81160;SDS011;70637;48.514;14.500;2024-03-08T07:29:20;17.25;;;7.38;;
81160;SDS011;70637;48.514;14.500;2024-03-08T07:31:46;17.92;;;6.97;;
81160;SDS011;70637;48.514;14.500;2024-03-08T07:34:27;20.23;;;7.37;;
81160;SDS011;70637;48.514;14.500;2024-03-08T07:36:57;17.42;;;7.40;;
81160;SDS011;70637;48.514;14.500;2024-03-08T07:39:23;15.98;;;6.82;;
81160;SDS011;70637;48.514;14.500;2024-03-08T07:41:49;16.20;;;7.15;;
81160;SDS011;70637;48.514;14.500;2024-03-08T07:44:17;19.90;;;7.22;;
81160;SDS011;70637;48.514;14.500;2024-03-08T07:46:43;14.82;;;6.80;;
81160;SDS011;70637;48.514;14.500;2024-03-08T07:49:09;14.20;;;6.75;;
81160;SDS011;70637;48.514;14.500;2024-03-08T07:51:36;11.52;;;6.38;;
81160;SDS011;70637;48.514;14.500;2024-03-08T07:54:02;13.15;;;6.78;;
81160;SDS011;70637;48.514;14.500;2024-03-08T07:56:29;12.35;;;6.32;;
81160;SDS011;70637;48.514;14.500;2024-03-08T07:58:55;10.73;;;5.97;;
81160;SDS011;70637;48.514;14.500;2024-03-08T08:01:21;12.20;;;5.82;;
81160;SDS011;70637;48.514;14.500;2024-03-08T08:03:47;13.35;;;6.00;;
81160;SDS011;70637;48.514;14.500;2024-03-08T08:06:14;11.77;;;6.20;;
81160;SDS011;70637;48.514;14.500;2024-03-08T08:08:41;11.57;;;6.53;;
81160;SDS011;70637;48.514;14.500;2024-03-08T08:11:07;14.35;;;5.80;;
81160;SDS011;70637;48.514;14.500;2024-03-08T08:13:34;13.75;;;6.15;;
81160;SDS011;70637;48.514;14.500;2024-03-08T08:16:00;11.80;;;5.55;;
81160;SDS011;70637;48.514;14.500;2024-03-08T08:18:25;11.85;;;5.90;;
81160;SDS011;70637;48.514;14.500;2024-03-08T08:20:51;10.00;;;5.53;;
81160;SDS011;70637;48.514;14.500;2024-03-08T08:23:20;12.77;;;5.78;;
81160;SDS011;70637;48.514;14.500;2024-03-08T08:25:46;10.32;;;5.90;;
81160;SDS011;70637;48.514;14.500;2024-03-08T08:28:15;13.00;;;5.90;;
81160;SDS011;70637;48.514;14.500;2024-03-08T08:30:42;14.85;;;5.95;;
81160;SDS011;70637;48.514;14.500;2024-03-08T08:33:08;10.88;;;5.32;;
81160;SDS011;70637;48.514;14.500;2024-03-08T08:35:35;11.52;;;5.43;;
81160;SDS011;70637;48.514;14.500;2024-03-08T08:38:04;13.93;;;5.97;;
81160;SDS011;70637;48.514;14.500;2024-03-08T08:40:30;11.85;;;5.53;;
81160;SDS011;70637;48.514;14.500;2024-03-08T08:42:57;11.93;;;5.28;;
81160;SDS011;70637;48.514;14.500;2024-03-08T08:45:23;11.88;;;5.35;;
81160;SDS011;70637;48.514;14.500;2024-03-08T08:47:49;9.80;;;4.95;;
81160;SDS011;70637;48.514;14.500;2024-03-08T08:50:15;12.68;;;5.45;;
81160;SDS011;70637;48.514;14.500;2024-03-08T08:52:41;12.27;;;5.25;;
81160;SDS011;70637;48.514;14.500;2024-03-08T08:55:10;9.48;;;4.95;;
81160;SDS011;70637;48.514;14.500;2024-03-08T08:57:39;10.70;;;5.20;;
81160;SDS011;70637;48.514;14.500;2024-03-08T09:00:05;12.02;;;5.43;;
81160;SDS011;70637;48.514;14.500;2024-03-08T09:02:33;10.07;;;5.38;;
81160;SDS011;70637;48.514;14.500;2024-03-08T09:04:59;13.95;;;5.30;;
81160;SDS011;70637;48.514;14.500;2024-03-08T09:07:26;8.77;;;5.07;;
81160;SDS011;70637;48.514;14.500;2024-03-08T09:09:53;9.85;;;5.07;;
81160;SDS011;70637;48.514;14.500;2024-03-08T09:12:22;9.80;;;5.20;;
81160;SDS011;70637;48.514;14.500;2024-03-08T09:14:48;10.45;;;4.90;;
81160;SDS011;70637;48.514;14.500;2024-03-08T09:17:14;11.48;;;5.10;;
81160;SDS011;70637;48.514;14.500;2024-03-08T09:22:14;9.95;;;5.07;;
81160;SDS011;70637;48.514;14.500;2024-03-08T09:24:40;10.80;;;5.05;;
81160;SDS011;70637;48.514;14.500;2024-03-08T09:27:08;8.98;;;4.70;;
81160;SDS011;70637;48.514;14.500;2024-03-08T09:29:35;12.18;;;5.22;;
81160;SDS011;70637;48.514;14.500;2024-03-08T09:32:01;8.02;;;5.00;;
81160;SDS011;70637;48.514;14.500;2024-03-08T09:34:26;10.45;;;5.03;;
81160;SDS011;70637;48.514;14.500;2024-03-08T09:36:52;10.35;;;4.82;;
81160;SDS011;70637;48.514;14.500;2024-03-08T09:39:18;8.27;;;4.53;;
81160;SDS011;70637;48.514;14.500;2024-03-08T09:41:46;10.55;;;5.05;;
81160;SDS011;70637;48.514;14.500;2024-03-08T09:44:18;10.52;;;4.55;;
81160;SDS011;70637;48.514;14.500;2024-03-08T09:46:45;8.27;;;4.72;;
81160;SDS011;70637;48.514;14.500;2024-03-08T09:49:16;9.45;;;4.85;;
81160;SDS011;70637;48.514;14.500;2024-03-08T09:51:42;9.80;;;4.53;;
81160;SDS011;70637;48.514;14.500;2024-03-08T09:54:07;11.35;;;5.28;;
81160;SDS011;70637;48.514;14.500;2024-03-08T09:56:34;10.50;;;4.90;;
81160;SDS011;70637;48.514;14.500;2024-03-08T09:59:01;8.05;;;4.82;;
81160;SDS011;70637;48.514;14.500;2024-03-08T10:01:53;9.25;;;4.50;;
81160;SDS011;70637;48.514;14.500;2024-03-08T10:04:22;8.95;;;4.10;;
81160;SDS011;70637;48.514;14.500;2024-03-08T10:06:47;7.20;;;4.22;;
81160;SDS011;70637;48.514;14.500;2024-03-08T10:09:14;6.82;;;4.20;;
81160;SDS011;70637;48.514;14.500;2024-03-08T10:11:41;7.20;;;4.63;;
81160;SDS011;70637;48.514;14.500;2024-03-08T10:14:08;7.38;;;4.00;;
81160;SDS011;70637;48.514;14.500;2024-03-08T10:16:34;7.75;;;4.35;;
81160;SDS011;70637;48.514;14.500;2024-03-08T10:19:00;7.03;;;4.25;;
81160;SDS011;70637;48.514;14.500;2024-03-08T10:21:28;6.80;;;4.25;;
81160;SDS011;70637;48.514;14.500;2024-03-08T10:23:53;7.60;;;4.15;;
81160;SDS011;70637;48.514;14.500;2024-03-08T10:26:21;10.60;;;4.60;;
81160;SDS011;70637;48.514;14.500;2024-03-08T10:28:50;7.10;;;4.32;;
81160;SDS011;70637;48.514;14.500;2024-03-08T10:31:17;8.32;;;4.40;;
81160;SDS011;70637;48.514;14.500;2024-03-08T10:33:44;8.35;;;4.22;;
81160;SDS011;70637;48.514;14.500;2024-03-08T10:36:14;7.20;;;4.30;;
81160;SDS011;70637;48.514;14.500;2024-03-08T10:38:41;7.38;;;4.43;;
81160;SDS011;70637;48.514;14.500;2024-03-08T10:43:59;8.18;;;3.78;;
81160;SDS011;70637;48.514;14.500;2024-03-08T10:49:06;6.50;;;3.92;;
81160;SDS011;70637;48.514;14.500;2024-03-08T10:51:37;7.82;;;4.30;;
81160;SDS011;70637;48.514;14.500;2024-03-08T10:54:03;6.38;;;4.00;;
81160;SDS011;70637;48.514;14.500;2024-03-08T10:56:32;5.55;;;3.95;;
81160;SDS011;70637;48.514;14.500;2024-03-08T10:58:57;6.47;;;3.88;;
81160;SDS011;70637;48.514;14.500;2024-03-08T11:01:23;7.28;;;3.90;;
81160;SDS011;70637;48.514;14.500;2024-03-08T11:03:51;7.00;;;3.88;;
81160;SDS011;70637;48.514;14.500;2024-03-08T11:07:03;7.38;;;3.80;;
81160;SDS011;70637;48.514;14.500;2024-03-08T11:14:59;5.47;;;3.90;;
81160;SDS011;70637;48.514;14.500;2024-03-08T11:19:57;6.90;;;3.90;;
81160;SDS011;70637;48.514;14.500;2024-03-08T11:22:31;6.18;;;3.60;;
81160;SDS011;70637;48.514;14.500;2024-03-08T11:24:58;6.05;;;3.50;;
81160;SDS011;70637;48.514;14.500;2024-03-08T11:27:28;6.28;;;3.63;;
81160;SDS011;70637;48.514;14.500;2024-03-08T11:30:00;7.03;;;3.70;;
81160;SDS011;70637;48.514;14.500;2024-03-08T11:32:50;5.20;;;3.33;;
81160;SDS011;70637;48.514;14.500;2024-03-08T11:35:21;5.25;;;3.80;;
81160;SDS011;70637;48.514;14.500;2024-03-08T11:37:50;5.35;;;3.38;;
81160;SDS011;70637;48.514;14.500;2024-03-08T11:40:15;4.75;;;3.42;;
81160;SDS011;70637;48.514;14.500;2024-03-08T11:42:45;7.50;;;3.72;;
81160;SDS011;70637;48.514;14.500;2024-03-08T11:45:14;6.85;;;3.47;;
81160;SDS011;70637;48.514;14.500;2024-03-08T11:47:42;10.23;;;3.90;;
81160;SDS011;70637;48.514;14.500;2024-03-08T11:50:11;5.45;;;3.30;;
81160;SDS011;70637;48.514;14.500;2024-03-08T11:52:37;5.53;;;3.53;;
81160;SDS011;70637;48.514;14.500;2024-03-08T11:55:03;5.25;;;3.50;;
81160;SDS011;70637;48.514;14.500;2024-03-08T11:57:30;5.90;;;3.47;;
81160;SDS011;70637;48.514;14.500;2024-03-08T11:59:57;7.10;;;3.65;;
81160;SDS011;70637;48.514;14.500;2024-03-08T12:02:31;5.10;;;3.50;;
81160;SDS011;70637;48.514;14.500;2024-03-08T12:05:00;7.07;;;3.20;;
81160;SDS011;70637;48.514;14.500;2024-03-08T12:07:28;5.10;;;3.28;;
81160;SDS011;70637;48.514;14.500;2024-03-08T12:13:00;7.20;;;3.83;;
81160;SDS011;70637;48.514;14.500;2024-03-08T12:15:26;4.97;;;3.63;;
81160;SDS011;70637;48.514;14.500;2024-03-08T12:17:54;5.30;;;3.63;;
81160;SDS011;70637;48.514;14.500;2024-03-08T12:20:24;6.60;;;3.55;;
81160;SDS011;70637;48.514;14.500;2024-03-08T12:22:51;6.20;;;3.38;;
81160;SDS011;70637;48.514;14.500;2024-03-08T12:25:19;5.50;;;3.53;;
81160;SDS011;70637;48.514;14.500;2024-03-08T12:27:45;6.07;;;3.13;;
81160;SDS011;70637;48.514;14.500;2024-03-08T12:30:18;4.93;;;3.10;;
81160;SDS011;70637;48.514;14.500;2024-03-08T12:32:48;6.28;;;3.70;;
81160;SDS011;70637;48.514;14.500;2024-03-08T12:35:19;9.50;;;3.83;;
81160;SDS011;70637;48.514;14.500;2024-03-08T12:37:48;6.47;;;3.60;;
81160;SDS011;70637;48.514;14.500;2024-03-08T12:40:26;7.03;;;3.60;;
81160;SDS011;70637;48.514;14.500;2024-03-08T12:42:57;4.70;;;3.05;;
81160;SDS011;70637;48.514;14.500;2024-03-08T12:45:23;5.55;;;3.35;;
81160;SDS011;70637;48.514;14.500;2024-03-08T12:47:50;5.53;;;3.30;;
81160;SDS011;70637;48.514;14.500;2024-03-08T12:50:16;6.60;;;3.30;;
81160;SDS011;70637;48.514;14.500;2024-03-08T12:52:43;5.00;;;3.17;;
81160;SDS011;70637;48.514;14.500;2024-03-08T12:55:08;6.38;;;3.97;;
81160;SDS011;70637;48.514;14.500;2024-03-08T12:57:34;7.28;;;3.35;;
81160;SDS011;70637;48.514;14.500;2024-03-08T13:00:02;5.72;;;3.20;;
81160;SDS011;70637;48.514;14.500;2024-03-08T13:02:29;4.82;;;3.03;;
81160;SDS011;70637;48.514;14.500;2024-03-08T13:04:58;6.13;;;3.58;;
81160;SDS011;70637;48.514;14.500;2024-03-08T13:07:24;6.20;;;3.35;;
81160;SDS011;70637;48.514;14.500;2024-03-08T13:09:53;5.35;;;3.10;;
81160;SDS011;70637;48.514;14.500;2024-03-08T13:12:20;6.18;;;3.35;;
81160;SDS011;70637;48.514;14.500;2024-03-08T13:14:46;6.82;;;3.33;;
81160;SDS011;70637;48.514;14.500;2024-03-08T13:17:16;6.10;;;3.17;;
81160;SDS011;70637;48.514;14.500;2024-03-08T13:19:43;6.68;;;3.08;;
81160;SDS011;70637;48.514;14.500;2024-03-08T13:22:09;5.32;;;3.10;;
81160;SDS011;70637;48.514;14.500;2024-03-08T13:24:39;6.47;;;3.20;;
81160;SDS011;70637;48.514;14.500;2024-03-08T13:27:06;7.03;;;3.45;;
81160;SDS011;70637;48.514;14.500;2024-03-08T13:29:44;8.63;;;3.15;;
81160;SDS011;70637;48.514;14.500;2024-03-08T13:32:14;5.45;;;3.20;;
81160;SDS011;70637;48.514;14.500;2024-03-08T13:34:40;5.53;;;3.15;;
81160;SDS011;70637;48.514;14.500;2024-03-08T13:37:07;7.43;;;3.15;;
81160;SDS011;70637;48.514;14.500;2024-03-08T13:39:35;6.43;;;3.45;;
81160;SDS011;70637;48.514;14.500;2024-03-08T13:42:08;7.20;;;3.40;;
81160;SDS011;70637;48.514;14.500;2024-03-08T13:44:36;9.35;;;3.45;;
81160;SDS011;70637;48.514;14.500;2024-03-08T13:47:02;7.80;;;3.20;;
81160;SDS011;70637;48.514;14.500;2024-03-08T13:49:29;7.07;;;3.33;;
81160;SDS011;70637;48.514;14.500;2024-03-08T13:51:56;7.22;;;3.20;;
81160;SDS011;70637;48.514;14.500;2024-03-08T13:54:24;5.50;;;3.08;;
81160;SDS011;70637;48.514;14.500;2024-03-08T13:56:49;7.30;;;3.53;;
81160;SDS011;70637;48.514;14.500;2024-03-08T13:59:19;6.15;;;3.33;;
81160;SDS011;70637;48.514;14.500;2024-03-08T14:01:47;7.68;;;3.70;;
81160;SDS011;70637;48.514;14.500;2024-03-08T14:04:14;7.22;;;3.58;;
81160;SDS011;70637;48.514;14.500;2024-03-08T14:06:42;8.32;;;3.70;;
81160;SDS011;70637;48.514;14.500;2024-03-08T14:09:11;5.85;;;3.47;;
81160;SDS011;70637;48.514;14.500;2024-03-08T14:11:45;7.47;;;3.60;;
81160;SDS011;70637;48.514;14.500;2024-03-08T14:14:11;5.32;;;3.28;;
81160;SDS011;70637;48.514;14.500;2024-03-08T14:16:39;5.65;;;3.10;;
81160;SDS011;70637;48.514;14.500;2024-03-08T14:19:05;7.53;;;3.55;;
81160;SDS011;70637;48.514;14.500;2024-03-08T14:21:31;7.15;;;3.45;;
81160;SDS011;70637;48.514;14.500;2024-03-08T14:23:58;8.00;;;3.70;;
81160;SDS011;70637;48.514;14.500;2024-03-08T14:26:23;6.13;;;3.40;;
81160;SDS011;70637;48.514;14.500;2024-03-08T14:28:49;7.35;;;3.05;;
81160;SDS011;70637;48.514;14.500;2024-03-08T14:31:20;7.55;;;3.30;;
81160;SDS011;70637;48.514;14.500;2024-03-08T14:33:48;5.45;;;3.55;;
81160;SDS011;70637;48.514;14.500;2024-03-08T14:36:14;6.82;;;3.17;;
81160;SDS011;70637;48.514;14.500;2024-03-08T14:38:42;5.60;;;3.20;;
81160;SDS011;70637;48.514;14.500;2024-03-08T14:41:08;6.45;;;3.33;;
81160;SDS011;70637;48.514;14.500;2024-03-08T14:43:34;5.63;;;3.10;;
81160;SDS011;70637;48.514;14.500;2024-03-08T14:46:00;6.10;;;3.08;;
81160;SDS011;70637;48.514;14.500;2024-03-08T14:48:25;5.32;;;3.22;;
81160;SDS011;70637;48.514;14.500;2024-03-08T14:50:51;5.35;;;3.28;;
81160;SDS011;70637;48.514;14.500;2024-03-08T14:53:17;5.78;;;3.38;;